createdAt,value
2017-08-25T00:00:31.197Z,7.43
2017-08-25T00:02:59.141Z,9.30
2017-08-25T00:05:26.854Z,10.03
2017-08-25T00:07:54.795Z,11.50
2017-08-25T00:10:22.544Z,8.77
2017-08-25T00:12:50.531Z,9.73
2017-08-25T00:15:18.421Z,8.90
2017-08-25T00:17:46.162Z,9.87
2017-08-25T00:20:13.947Z,8.30
2017-08-25T00:22:41.619Z,9.30
2017-08-25T00:25:09.275Z,8.30
2017-08-25T00:27:37.348Z,9.17
2017-08-25T00:30:05.077Z,9.20
2017-08-25T00:32:32.943Z,10.43
2017-08-25T00:35:00.753Z,10.07
2017-08-25T00:37:28.476Z,9.50
2017-08-25T00:39:56.441Z,10.80
2017-08-25T00:42:24.347Z,9.40
2017-08-25T00:44:52.053Z,9.00
2017-08-25T00:47:19.880Z,8.90
2017-08-25T00:49:47.884Z,9.03
2017-08-25T00:52:15.607Z,8.80
2017-08-25T00:54:43.442Z,9.27
2017-08-25T00:57:11.257Z,8.87
2017-08-25T00:59:39.102Z,9.50
2017-08-25T01:02:06.721Z,9.00
2017-08-25T01:04:34.586Z,8.70
2017-08-25T01:07:02.425Z,8.40
2017-08-25T01:09:30.419Z,7.83
2017-08-25T01:11:58.187Z,9.30
2017-08-25T01:14:26.150Z,9.03
2017-08-25T01:16:54.268Z,7.60
2017-08-25T01:19:22.212Z,9.17
2017-08-25T01:21:50.201Z,8.63
2017-08-25T01:24:17.877Z,9.60
2017-08-25T01:26:45.734Z,9.70
2017-08-25T01:29:13.456Z,9.20
2017-08-25T01:31:41.481Z,9.97
2017-08-25T01:34:09.536Z,8.43
2017-08-25T01:36:37.213Z,7.90
2017-08-25T01:39:05.219Z,8.53
2017-08-25T01:41:33.180Z,9.23
2017-08-25T01:44:01.000Z,9.80
2017-08-25T01:46:28.887Z,10.27
2017-08-25T01:48:56.754Z,9.13
2017-08-25T01:51:24.606Z,10.67
2017-08-25T01:53:52.399Z,11.70
2017-08-25T01:56:20.147Z,9.57
2017-08-25T01:58:47.818Z,9.80
2017-08-25T02:01:15.944Z,10.80
2017-08-25T02:03:43.937Z,10.33
2017-08-25T02:06:11.682Z,10.57
2017-08-25T02:08:39.684Z,9.47
2017-08-25T02:11:07.538Z,9.33
2017-08-25T02:13:35.242Z,8.73
2017-08-25T02:16:03.249Z,8.80
2017-08-25T02:18:31.080Z,8.80
2017-08-25T02:20:58.833Z,9.00
2017-08-25T02:23:26.549Z,8.40
2017-08-25T02:25:54.342Z,8.80
2017-08-25T02:28:22.179Z,9.33
2017-08-25T02:30:49.999Z,9.30
2017-08-25T02:33:17.941Z,9.83
2017-08-25T02:35:45.659Z,9.70
2017-08-25T02:38:13.479Z,10.57
2017-08-25T02:40:41.468Z,10.67
2017-08-25T02:43:09.283Z,10.40
2017-08-25T02:45:37.108Z,10.87
2017-08-25T02:48:05.017Z,11.10
2017-08-25T02:50:32.808Z,9.43
2017-08-25T02:53:00.644Z,9.10
2017-08-25T02:55:28.517Z,9.93
2017-08-25T02:57:56.260Z,9.53
2017-08-25T03:00:24.281Z,10.20
2017-08-25T03:02:52.354Z,11.13
2017-08-25T03:05:20.019Z,11.40
2017-08-25T03:07:47.849Z,8.87
2017-08-25T03:10:15.940Z,8.30
2017-08-25T03:12:43.782Z,9.90
2017-08-25T03:15:11.687Z,8.93
2017-08-25T03:17:39.553Z,10.57
2017-08-25T03:20:07.534Z,10.27
2017-08-25T03:22:35.402Z,10.47
2017-08-25T03:25:03.150Z,11.07
2017-08-25T03:27:31.010Z,12.40
2017-08-25T03:29:58.753Z,11.33
2017-08-25T03:32:26.765Z,12.83
2017-08-25T03:34:54.604Z,12.57
2017-08-25T03:37:22.354Z,10.13
2017-08-25T03:39:50.357Z,11.43
2017-08-25T03:42:18.090Z,10.60
2017-08-25T03:44:46.092Z,10.00
2017-08-25T03:47:13.959Z,10.10
2017-08-25T03:49:41.809Z,11.90
2017-08-25T03:52:09.604Z,12.40
2017-08-25T03:54:37.521Z,10.40
2017-08-25T03:57:05.410Z,11.90
2017-08-25T03:59:33.277Z,11.43
2017-08-25T04:02:01.157Z,10.37
2017-08-25T04:04:28.825Z,11.10
2017-08-25T04:06:56.481Z,7.30
2017-08-25T04:09:24.361Z,7.00
2017-08-25T04:11:52.313Z,9.00
2017-08-25T04:14:20.130Z,6.50
2017-08-25T04:16:47.952Z,6.23
2017-08-25T04:19:15.663Z,6.00
2017-08-25T04:21:43.483Z,6.90
2017-08-25T04:24:11.551Z,6.90
2017-08-25T04:26:39.386Z,7.00
2017-08-25T04:29:07.129Z,5.30
2017-08-25T04:31:34.996Z,6.70
2017-08-25T04:34:03.019Z,7.37
2017-08-25T04:36:30.730Z,7.23
2017-08-25T04:38:58.692Z,6.80
2017-08-25T04:41:26.425Z,5.83
2017-08-25T04:43:54.077Z,6.60
2017-08-25T04:46:22.171Z,6.70
2017-08-25T04:48:49.810Z,6.47
2017-08-25T04:51:17.656Z,6.37
2017-08-25T04:53:45.497Z,6.40
2017-08-25T04:56:13.411Z,7.27
2017-08-25T04:58:41.133Z,6.23
2017-08-25T05:01:08.940Z,6.20
2017-08-25T05:03:36.666Z,6.30
2017-08-25T05:06:05.133Z,7.73
2017-08-25T05:08:33.124Z,6.23
2017-08-25T05:11:00.867Z,6.47
2017-08-25T05:13:28.891Z,7.93
2017-08-25T05:15:56.963Z,6.47
2017-08-25T05:18:24.816Z,6.40
2017-08-25T05:20:52.413Z,6.50
2017-08-25T05:23:20.550Z,6.40
2017-08-25T05:25:48.417Z,5.50
2017-08-25T05:28:16.285Z,6.40
2017-08-25T05:30:44.350Z,5.83
2017-08-25T05:33:12.237Z,4.90
2017-08-25T05:35:39.893Z,5.40
2017-08-25T05:38:07.954Z,5.90
2017-08-25T05:40:35.830Z,5.20
2017-08-25T05:43:03.688Z,4.20
2017-08-25T05:45:31.751Z,4.53
2017-08-25T05:47:59.493Z,5.47
2017-08-25T05:50:27.304Z,4.83
2017-08-25T05:52:55.377Z,4.70
2017-08-25T05:55:23.038Z,5.60
2017-08-25T05:57:50.699Z,5.27
2017-08-25T06:00:18.772Z,5.60
2017-08-25T06:02:46.625Z,5.30
2017-08-25T06:05:14.492Z,5.33
2017-08-25T06:07:42.557Z,4.30
2017-08-25T06:10:10.427Z,4.23
2017-08-25T06:12:38.220Z,5.13
2017-08-25T06:15:06.179Z,5.20
2017-08-25T06:17:33.904Z,4.13
2017-08-25T06:20:01.712Z,4.93
2017-08-25T06:22:29.783Z,4.47
2017-08-25T06:24:57.629Z,5.43
2017-08-25T06:27:25.494Z,4.80
2017-08-25T06:29:53.364Z,3.80
2017-08-25T06:32:21.357Z,4.37
2017-08-25T06:34:49.175Z,4.20
2017-08-25T06:37:17.139Z,3.77
2017-08-25T06:39:44.847Z,6.53
2017-08-25T06:42:12.578Z,3.80
2017-08-25T06:44:40.445Z,5.87
2017-08-25T06:47:08.449Z,4.07
2017-08-25T06:49:36.110Z,4.30
2017-08-25T06:52:04.118Z,3.43
2017-08-25T06:54:31.914Z,3.60
2017-08-25T06:56:59.756Z,3.20
2017-08-25T06:59:27.648Z,4.77
2017-08-25T07:01:55.639Z,3.77
2017-08-25T07:04:23.392Z,4.33
2017-08-25T07:06:51.322Z,3.93
2017-08-25T07:09:19.168Z,4.20
2017-08-25T07:11:47.125Z,4.67
2017-08-25T07:14:15.103Z,3.67
2017-08-25T07:16:43.056Z,5.53
2017-08-25T07:19:10.719Z,3.90
2017-08-25T07:21:39.599Z,3.97
2017-08-25T07:24:07.272Z,4.87
2017-08-25T07:26:35.313Z,3.73
2017-08-25T07:29:03.416Z,3.77
2017-08-25T07:31:31.270Z,3.47
2017-08-25T07:33:59.136Z,4.53
2017-08-25T07:36:27.205Z,5.87
2017-08-25T07:38:54.883Z,4.50
2017-08-25T07:41:22.591Z,5.00
2017-08-25T07:43:50.412Z,6.00
2017-08-25T07:46:18.247Z,7.30
2017-08-25T07:48:46.116Z,7.23
2017-08-25T07:51:13.983Z,7.13
2017-08-25T07:53:41.879Z,6.77
2017-08-25T07:56:09.598Z,7.20
2017-08-25T07:58:37.617Z,6.10
2017-08-25T08:01:05.454Z,4.93
2017-08-25T08:03:33.321Z,4.75
2017-08-25T08:06:00.995Z,4.72
2017-08-25T08:08:28.732Z,4.62
2017-08-25T08:10:56.365Z,3.55
2017-08-25T08:13:24.338Z,4.87
2017-08-25T08:15:52.064Z,4.17
2017-08-25T08:18:19.777Z,4.43
2017-08-25T08:20:47.741Z,5.03
2017-08-25T08:23:15.563Z,6.30
2017-08-25T08:25:43.373Z,5.53
2017-08-25T08:28:11.345Z,5.50
2017-08-25T08:30:39.272Z,6.90
2017-08-25T08:33:07.005Z,4.73
2017-08-25T08:35:34.971Z,2.77
2017-08-25T08:38:02.768Z,3.10
2017-08-25T08:40:30.583Z,3.30
2017-08-25T08:42:58.277Z,3.37
2017-08-25T08:45:26.268Z,3.37
2017-08-25T08:47:54.188Z,3.87
2017-08-25T08:50:22.052Z,2.92
2017-08-25T08:52:50.019Z,2.67
2017-08-25T08:55:18.510Z,2.75
2017-08-25T08:57:46.603Z,2.83
2017-08-25T09:00:14.470Z,3.10
2017-08-25T09:02:42.337Z,4.93
2017-08-25T09:05:10.281Z,2.87
2017-08-25T09:07:38.273Z,3.03
2017-08-25T09:10:06.140Z,3.73
2017-08-25T09:12:34.183Z,2.77
2017-08-25T09:15:02.106Z,3.80
2017-08-25T09:17:29.769Z,2.73
2017-08-25T09:19:57.628Z,3.10
2017-08-25T09:22:25.354Z,2.60
2017-08-25T09:24:53.163Z,3.20
2017-08-25T09:27:20.986Z,4.00
2017-08-25T09:29:48.704Z,3.03
2017-08-25T09:32:16.423Z,3.10
2017-08-25T09:34:44.218Z,3.25
2017-08-25T09:37:12.087Z,3.55
2017-08-25T09:39:39.801Z,2.30
2017-08-25T09:42:07.792Z,2.55
2017-08-25T09:44:35.536Z,2.58
2017-08-25T09:47:03.427Z,2.50
2017-08-25T09:49:31.209Z,3.10
2017-08-25T09:51:59.060Z,3.20
2017-08-25T09:54:26.927Z,3.05
2017-08-25T09:56:55.022Z,2.50
2017-08-25T09:59:23.063Z,2.70
2017-08-25T10:01:50.756Z,3.87
2017-08-25T10:04:18.747Z,2.58
2017-08-25T10:06:46.594Z,3.17
2017-08-25T10:09:14.558Z,2.75
2017-08-25T10:11:42.634Z,2.05
2017-08-25T10:14:10.295Z,2.85
2017-08-25T10:16:37.951Z,2.50
2017-08-25T10:19:05.952Z,2.60
2017-08-25T10:21:33.798Z,3.20
2017-08-25T10:24:01.615Z,3.00
2017-08-25T10:26:29.603Z,2.20
2017-08-25T10:28:57.470Z,2.90
2017-08-25T10:31:25.477Z,2.70
2017-08-25T10:33:53.636Z,2.65
2017-08-25T10:36:33.182Z,3.62
2017-08-25T10:39:12.767Z,2.30
2017-08-25T10:41:52.332Z,2.17
2017-08-25T10:44:32.046Z,2.33
2017-08-25T10:47:00.041Z,2.35
2017-08-25T10:49:27.907Z,2.60
2017-08-25T10:51:55.770Z,3.10
2017-08-25T10:54:23.478Z,2.87
2017-08-25T10:56:51.334Z,2.45
2017-08-25T10:59:19.279Z,2.28
2017-08-25T11:01:47.280Z,2.90
2017-08-25T11:04:15.147Z,2.15
2017-08-25T11:06:42.932Z,2.70
2017-08-25T11:09:10.884Z,2.40
2017-08-25T11:11:39.773Z,2.47
2017-08-25T11:14:07.843Z,2.58
2017-08-25T11:16:35.502Z,3.05
2017-08-25T11:19:03.375Z,3.17
2017-08-25T11:21:31.446Z,2.40
2017-08-25T11:23:59.156Z,3.10
2017-08-25T11:26:27.122Z,2.22
2017-08-25T11:28:54.870Z,1.98
2017-08-25T11:31:22.901Z,3.15
2017-08-25T11:33:50.624Z,2.80
2017-08-25T11:36:18.647Z,2.45
2017-08-25T11:38:46.358Z,3.20
2017-08-25T11:41:14.379Z,2.10
2017-08-25T11:43:42.293Z,2.40
2017-08-25T11:46:10.319Z,3.00
2017-08-25T11:48:38.024Z,3.05
2017-08-25T11:51:05.919Z,3.17
2017-08-25T11:53:33.756Z,2.72
2017-08-25T11:56:01.788Z,2.28
2017-08-25T11:58:29.821Z,2.47
2017-08-25T12:00:57.510Z,2.55
2017-08-25T12:03:25.356Z,2.22
2017-08-25T12:05:53.042Z,3.25
2017-08-25T12:08:20.766Z,2.53
2017-08-25T12:10:48.578Z,2.03
2017-08-25T12:13:16.446Z,2.10
2017-08-25T12:15:44.174Z,2.95
2017-08-25T12:18:12.085Z,2.97
2017-08-25T12:20:39.906Z,2.50
2017-08-25T12:23:07.870Z,2.55
2017-08-25T12:25:35.692Z,3.15
2017-08-25T12:28:03.604Z,2.30
2017-08-25T12:30:31.349Z,2.40
2017-08-25T12:32:59.365Z,3.28
2017-08-25T12:35:27.284Z,2.00
2017-08-25T12:37:54.975Z,2.70
2017-08-25T12:40:22.982Z,2.75
2017-08-25T12:42:51.034Z,3.90
2017-08-25T12:45:18.921Z,2.42
2017-08-25T12:47:46.644Z,2.85
2017-08-25T12:50:14.636Z,2.60
2017-08-25T12:52:42.503Z,3.25
2017-08-25T12:55:10.249Z,2.53
2017-08-25T12:57:38.251Z,2.97
2017-08-25T13:00:06.106Z,3.22
2017-08-25T13:02:33.773Z,3.30
2017-08-25T13:05:01.844Z,3.58
2017-08-25T13:07:29.708Z,3.00
2017-08-25T13:09:57.575Z,2.60
2017-08-25T13:12:25.657Z,2.40
2017-08-25T13:14:53.514Z,3.80
2017-08-25T13:17:21.188Z,5.90
2017-08-25T13:19:49.243Z,3.40
2017-08-25T13:22:16.918Z,3.30
2017-08-25T13:24:44.520Z,2.90
2017-08-25T13:27:12.451Z,3.20
2017-08-25T13:29:40.282Z,3.73
2017-08-25T13:32:08.028Z,4.27
2017-08-25T13:34:36.049Z,3.73
2017-08-25T13:37:04.249Z,2.90
2017-08-25T13:39:32.081Z,3.33
2017-08-25T13:41:59.852Z,3.00
2017-08-25T13:44:27.518Z,2.60
2017-08-25T13:46:55.361Z,4.10
2017-08-25T13:49:23.253Z,4.60
2017-08-25T13:51:50.849Z,3.20
2017-08-25T13:54:18.778Z,3.17
2017-08-25T13:56:46.799Z,3.20
2017-08-25T13:59:14.517Z,3.67
2017-08-25T14:01:42.174Z,3.70
2017-08-25T14:04:10.230Z,3.10
2017-08-25T14:06:38.095Z,3.33
2017-08-25T14:09:05.780Z,3.17
2017-08-25T14:11:33.442Z,6.80
2017-08-25T14:14:01.306Z,3.77
2017-08-25T14:16:28.972Z,3.00
2017-08-25T14:18:57.010Z,3.97
2017-08-25T14:21:24.699Z,4.47
2017-08-25T14:23:52.360Z,3.30
2017-08-25T14:26:20.439Z,3.47
2017-08-25T14:28:48.273Z,4.63
2017-08-25T14:31:15.962Z,3.40
2017-08-25T14:33:44.035Z,3.83
2017-08-25T14:36:11.690Z,3.20
2017-08-25T14:38:39.568Z,4.03
2017-08-25T14:41:07.644Z,3.77
2017-08-25T14:43:35.482Z,3.30
2017-08-25T14:46:03.350Z,3.57
2017-08-25T14:48:31.217Z,3.27
2017-08-25T14:50:59.085Z,3.50
2017-08-25T14:53:26.952Z,4.00
2017-08-25T14:55:54.818Z,4.27
2017-08-25T14:58:22.685Z,3.60
2017-08-25T15:00:50.798Z,3.97
2017-08-25T15:03:18.526Z,3.03
2017-08-25T15:05:46.515Z,2.90
2017-08-25T15:08:14.380Z,3.97
2017-08-25T15:10:42.101Z,3.57
2017-08-25T15:13:09.968Z,2.93
2017-08-25T15:15:37.931Z,4.03
2017-08-25T15:18:04.209Z,3.43
2017-08-25T15:20:30.814Z,4.23
2017-08-25T15:22:57.488Z,3.60
2017-08-25T15:25:24.103Z,3.10
2017-08-25T15:27:50.765Z,3.73
2017-08-25T15:30:17.401Z,5.03
2017-08-25T15:32:44.028Z,3.20
2017-08-25T15:35:10.524Z,6.90
2017-08-25T15:37:37.316Z,4.77
2017-08-25T15:40:03.808Z,3.20
2017-08-25T15:42:30.178Z,3.47
2017-08-25T15:44:56.503Z,3.47
2017-08-25T15:47:22.804Z,3.50
2017-08-25T15:49:49.479Z,4.33
2017-08-25T15:52:16.069Z,12.10
2017-08-25T15:54:42.542Z,4.23
2017-08-25T15:57:08.879Z,4.87
2017-08-25T15:59:35.473Z,4.37
2017-08-25T16:02:01.915Z,3.77
2017-08-25T16:04:28.425Z,3.30
2017-08-25T16:06:55.000Z,4.77
2017-08-25T16:09:21.514Z,3.50
2017-08-25T16:11:48.203Z,3.70
2017-08-25T16:14:14.626Z,5.17
2017-08-25T16:16:41.070Z,5.70
2017-08-25T16:19:07.709Z,6.17
2017-08-25T16:21:34.348Z,6.40
2017-08-25T16:24:00.969Z,6.10
2017-08-25T16:26:27.417Z,5.77
2017-08-25T16:28:53.997Z,7.90
2017-08-25T16:31:20.690Z,6.00
2017-08-25T16:33:47.016Z,9.83
2017-08-25T16:36:13.604Z,3.90
2017-08-25T16:38:39.985Z,9.67
2017-08-25T16:41:06.615Z,9.60
2017-08-25T16:43:33.063Z,17.50
2017-08-25T16:45:59.671Z,14.87
2017-08-25T16:48:26.340Z,13.83
2017-08-25T16:50:52.974Z,10.83
2017-08-25T16:53:19.597Z,13.60
2017-08-25T16:55:46.256Z,11.43
2017-08-25T16:58:12.893Z,12.80
2017-08-25T17:00:39.172Z,12.00
2017-08-25T17:03:05.624Z,10.07
2017-08-25T17:05:32.159Z,13.10
2017-08-25T17:07:58.627Z,13.20
2017-08-25T17:10:25.053Z,8.63
2017-08-25T17:12:51.698Z,9.30
2017-08-25T17:15:18.128Z,16.90
2017-08-25T17:17:44.743Z,18.47
2017-08-25T17:20:11.197Z,10.20
2017-08-25T17:22:37.621Z,6.80
2017-08-25T17:25:04.244Z,7.03
2017-08-25T17:27:30.770Z,5.90
2017-08-25T17:29:57.125Z,6.53
2017-08-25T17:32:23.569Z,6.63
2017-08-25T17:34:50.002Z,8.43
2017-08-25T17:37:16.289Z,8.17
2017-08-25T17:39:43.280Z,6.37
2017-08-25T17:42:09.702Z,9.50
2017-08-25T17:44:36.355Z,6.70
2017-08-25T17:47:02.776Z,7.57
2017-08-25T17:49:29.215Z,7.43
2017-08-25T17:51:55.509Z,7.13
2017-08-25T17:54:22.077Z,6.27
2017-08-25T17:56:48.924Z,6.53
2017-08-25T17:59:15.567Z,6.03
2017-08-25T18:01:42.178Z,6.90
2017-08-25T18:04:08.630Z,7.13
2017-08-25T18:06:35.068Z,6.30
2017-08-25T18:09:01.537Z,6.10
2017-08-25T18:11:27.972Z,7.10
2017-08-25T18:13:54.292Z,7.83
2017-08-25T18:16:20.577Z,8.03
2017-08-25T18:18:46.913Z,7.70
2017-08-25T18:21:13.422Z,7.57
2017-08-25T18:23:39.707Z,6.80
2017-08-25T18:26:06.332Z,7.67
2017-08-25T18:28:32.795Z,7.23
2017-08-25T18:30:59.200Z,8.77
2017-08-25T18:33:25.603Z,7.23
2017-08-25T18:35:52.062Z,7.70
2017-08-25T18:38:18.691Z,7.70
2017-08-25T18:40:45.308Z,6.87
2017-08-25T18:43:11.977Z,9.60
2017-08-25T18:45:38.252Z,8.23
2017-08-25T18:48:04.587Z,8.37
2017-08-25T18:50:30.874Z,7.73
2017-08-25T18:52:57.301Z,10.77
2017-08-25T18:55:23.640Z,8.67
2017-08-25T18:57:50.126Z,6.40
2017-08-25T19:00:16.611Z,7.57
2017-08-25T19:02:43.041Z,9.70
2017-08-25T19:05:09.655Z,11.57
2017-08-25T19:07:36.108Z,9.53
2017-08-25T19:10:02.539Z,8.07
2017-08-25T19:12:28.973Z,8.40
2017-08-25T19:14:55.261Z,5.93
2017-08-25T19:17:21.813Z,10.47
2017-08-25T19:19:48.455Z,7.77
2017-08-25T19:22:14.891Z,7.40
2017-08-25T19:24:41.345Z,9.13
2017-08-25T19:27:07.781Z,8.37
2017-08-25T19:29:34.395Z,7.47
2017-08-25T19:32:00.921Z,6.40
2017-08-25T19:34:27.360Z,7.90
2017-08-25T19:36:53.870Z,7.27
2017-08-25T19:39:20.366Z,7.87
2017-08-25T19:41:46.998Z,8.60
2017-08-25T19:44:13.595Z,7.80
2017-08-25T19:46:40.064Z,8.03
2017-08-25T19:49:06.506Z,7.73
2017-08-25T19:51:33.005Z,7.17
2017-08-25T19:53:59.563Z,6.97
2017-08-25T19:56:26.060Z,8.30
2017-08-25T19:58:52.383Z,8.20
2017-08-25T20:01:18.718Z,8.20
2017-08-25T20:03:45.057Z,8.90
2017-08-25T20:06:11.376Z,7.20
2017-08-25T20:08:37.671Z,8.30
2017-08-25T20:11:04.054Z,8.33
2017-08-25T20:13:30.347Z,7.73
2017-08-25T20:15:56.652Z,7.77
2017-08-25T20:18:22.987Z,8.97
2017-08-25T20:20:49.477Z,7.67
2017-08-25T20:23:15.925Z,7.53
2017-08-25T20:25:42.295Z,8.20
2017-08-25T20:28:08.818Z,8.13
2017-08-25T20:30:35.444Z,9.57
2017-08-25T20:33:01.887Z,8.33
2017-08-25T20:35:28.317Z,8.10
2017-08-25T20:37:54.822Z,8.13
2017-08-25T20:40:21.398Z,7.53
2017-08-25T20:42:47.679Z,8.90
2017-08-25T20:45:14.875Z,8.43
2017-08-25T20:47:41.341Z,10.47
2017-08-25T20:50:07.933Z,9.90
2017-08-25T20:52:34.380Z,9.33
2017-08-25T20:55:01.019Z,10.03
2017-08-25T20:57:27.632Z,9.83
2017-08-25T20:59:54.298Z,10.40
2017-08-25T21:02:20.930Z,9.10
2017-08-25T21:04:47.532Z,11.80
2017-08-25T21:07:14.230Z,9.20
2017-08-25T21:09:40.662Z,10.07
2017-08-25T21:12:07.134Z,10.37
2017-08-25T21:14:33.423Z,13.50
2017-08-25T21:16:59.839Z,9.60
2017-08-25T21:19:26.116Z,10.00
2017-08-25T21:21:52.707Z,8.67
2017-08-25T21:24:19.138Z,9.37
2017-08-25T21:26:45.611Z,9.00
2017-08-25T21:29:11.995Z,9.13
2017-08-25T21:31:38.747Z,9.17
2017-08-25T21:34:05.279Z,10.20
2017-08-25T21:36:31.903Z,8.97
2017-08-25T21:38:58.348Z,8.73
2017-08-25T21:41:24.966Z,8.67
2017-08-25T21:43:51.632Z,9.20
2017-08-25T21:46:18.251Z,10.30
2017-08-25T21:48:44.732Z,10.53
2017-08-25T21:51:11.130Z,9.57
2017-08-25T21:53:37.723Z,9.37
2017-08-25T21:56:04.311Z,8.83
2017-08-25T21:58:30.905Z,8.00
2017-08-25T22:00:57.431Z,7.80
2017-08-25T22:03:23.869Z,10.83
2017-08-25T22:05:50.172Z,8.27
2017-08-25T22:08:16.548Z,11.03
2017-08-25T22:10:42.892Z,11.60
2017-08-25T22:13:09.162Z,9.30
2017-08-25T22:15:35.572Z,9.17
2017-08-25T22:18:01.874Z,11.90
2017-08-25T22:20:28.433Z,8.80
2017-08-25T22:22:55.480Z,11.63
2017-08-25T22:25:21.820Z,12.97
2017-08-25T22:27:48.313Z,9.83
2017-08-25T22:30:14.952Z,11.43
2017-08-25T22:32:41.403Z,9.63
2017-08-25T22:35:07.852Z,8.67
2017-08-25T22:37:34.184Z,9.30
2017-08-25T22:40:00.669Z,11.20
2017-08-25T22:42:26.959Z,11.13
2017-08-25T22:44:53.584Z,9.10
2017-08-25T22:47:19.861Z,10.53
2017-08-25T22:49:46.246Z,11.30
2017-08-25T22:52:12.887Z,9.27
2017-08-25T22:54:39.497Z,11.40
2017-08-25T22:57:05.941Z,10.10
2017-08-25T22:59:32.431Z,10.30
2017-08-25T23:01:58.880Z,11.73
2017-08-25T23:04:25.165Z,10.40
2017-08-25T23:06:51.861Z,10.40
2017-08-25T23:09:18.531Z,10.17
2017-08-25T23:11:44.952Z,11.10
2017-08-25T23:14:11.556Z,10.50
2017-08-25T23:16:38.225Z,10.90
2017-08-25T23:19:04.674Z,9.83
2017-08-25T23:21:31.108Z,10.77
2017-08-25T23:23:57.536Z,10.43
2017-08-25T23:26:23.980Z,11.17
2017-08-25T23:28:50.336Z,11.93
2017-08-25T23:31:16.840Z,12.20
2017-08-25T23:33:43.263Z,11.67
2017-08-25T23:36:09.863Z,14.30
2017-08-25T23:38:36.337Z,12.93
2017-08-25T23:41:02.820Z,12.97
2017-08-25T23:43:29.361Z,12.50
2017-08-25T23:45:55.690Z,12.40
2017-08-25T23:48:22.285Z,14.37
2017-08-25T23:50:48.708Z,13.20
2017-08-25T23:53:15.152Z,13.20
2017-08-25T23:55:41.586Z,11.70
2017-08-25T23:58:08.012Z,13.20
